createdAt,value
2023-03-29T00:01:42.069Z,2.20
2023-03-29T00:04:10.191Z,2.70
2023-03-29T00:06:37.777Z,2.20
2023-03-29T00:09:09.827Z,1.90
2023-03-29T00:11:36.546Z,2.33
2023-03-29T00:14:03.293Z,1.83
2023-03-29T00:16:29.891Z,2.20
2023-03-29T00:18:58.264Z,2.20
2023-03-29T00:21:25.039Z,1.95
2023-03-29T00:23:51.726Z,2.13
2023-03-29T00:26:18.328Z,2.33
2023-03-29T00:28:45.042Z,2.45
2023-03-29T00:31:16.078Z,2.13
2023-03-29T00:33:42.936Z,1.80
2023-03-29T00:36:11.034Z,2.17
2023-03-29T00:38:39.248Z,2.20
2023-03-29T00:41:07.925Z,1.80
2023-03-29T00:43:58.501Z,2.10
2023-03-29T00:46:27.074Z,1.70
2023-03-29T00:49:01.821Z,1.90
2023-03-29T00:51:30.638Z,2.33
2023-03-29T00:54:01.695Z,2.33
2023-03-29T00:56:33.298Z,2.00
2023-03-29T00:59:02.317Z,2.20
2023-03-29T01:01:55.117Z,2.28
2023-03-29T01:04:25.217Z,2.50
2023-03-29T01:07:08.163Z,2.13
2023-03-29T01:09:39.245Z,2.25
2023-03-29T01:12:17.106Z,2.28
2023-03-29T01:15:05.770Z,2.42
2023-03-29T01:17:33.194Z,2.10
2023-03-29T01:20:10.604Z,2.40
2023-03-29T01:22:51.655Z,2.05
2023-03-29T01:25:49.051Z,2.22
2023-03-29T01:28:22.101Z,1.80
2023-03-29T01:30:53.269Z,2.10
2023-03-29T01:33:31.430Z,2.10
2023-03-29T01:36:09.611Z,1.95
2023-03-29T01:38:49.586Z,2.10
2023-03-29T01:41:16.569Z,2.38
2023-03-29T01:43:48.706Z,1.93
2023-03-29T01:46:27.093Z,2.75
2023-03-29T01:48:53.869Z,2.60
2023-03-29T01:51:35.488Z,2.83
2023-03-29T01:54:05.360Z,2.67
2023-03-29T01:56:37.807Z,2.60
2023-03-29T01:59:09.256Z,2.83
2023-03-29T02:01:42.433Z,2.90
2023-03-29T02:04:14.405Z,2.25
2023-03-29T02:06:42.812Z,2.30
2023-03-29T02:09:09.448Z,2.00
2023-03-29T02:11:37.636Z,2.22
2023-03-29T02:14:04.267Z,2.30
2023-03-29T02:16:38.848Z,2.30
2023-03-29T02:19:07.858Z,2.00
2023-03-29T02:21:41.659Z,2.00
2023-03-29T02:24:13.301Z,1.83
2023-03-29T02:26:40.066Z,2.30
2023-03-29T02:29:06.779Z,2.10
2023-03-29T02:31:55.550Z,2.10
2023-03-29T02:34:30.839Z,1.90
2023-03-29T02:37:06.773Z,2.13
2023-03-29T02:39:34.941Z,1.80
2023-03-29T02:42:03.740Z,1.80
2023-03-29T02:44:33.320Z,2.10
2023-03-29T02:47:13.617Z,2.20
2023-03-29T02:49:40.518Z,2.90
2023-03-29T02:52:13.476Z,2.70
2023-03-29T02:54:43.289Z,2.40
2023-03-29T02:57:10.679Z,3.25
2023-03-29T02:59:38.596Z,2.60
2023-03-29T03:02:05.736Z,2.92
2023-03-29T03:04:35.328Z,2.80
2023-03-29T03:07:04.694Z,2.97
2023-03-29T03:09:31.770Z,3.10
2023-03-29T03:11:58.478Z,3.05
2023-03-29T03:14:25.454Z,2.83
2023-03-29T03:16:52.795Z,2.95
2023-03-29T03:19:19.841Z,2.45
2023-03-29T03:21:47.009Z,2.70
2023-03-29T03:24:15.514Z,2.90
2023-03-29T03:26:42.184Z,3.05
2023-03-29T03:29:08.938Z,2.70
2023-03-29T03:31:54.968Z,2.55
2023-03-29T03:34:43.490Z,2.38
2023-03-29T03:37:12.082Z,2.65
2023-03-29T03:39:39.028Z,2.58
2023-03-29T03:42:08.543Z,3.63
2023-03-29T03:44:39.696Z,4.60
2023-03-29T03:47:19.375Z,3.40
2023-03-29T03:49:46.546Z,54.83
2023-03-29T03:52:15.159Z,18.77
2023-03-29T03:54:41.745Z,3.97
2023-03-29T03:57:28.470Z,3.65
2023-03-29T03:59:56.235Z,3.90
2023-03-29T04:02:39.508Z,3.37
2023-03-29T04:05:08.539Z,3.28
2023-03-29T04:07:39.187Z,2.92
2023-03-29T04:10:23.363Z,3.38
2023-03-29T04:12:53.399Z,4.10
2023-03-29T04:15:20.796Z,4.38
2023-03-29T04:17:59.798Z,3.58
2023-03-29T04:20:41.698Z,3.13
2023-03-29T04:23:09.440Z,3.13
2023-03-29T04:25:37.514Z,4.00
2023-03-29T04:28:22.932Z,3.40
2023-03-29T04:31:08.724Z,3.30
2023-03-29T04:34:02.056Z,3.25
2023-03-29T04:36:29.270Z,4.18
2023-03-29T04:38:55.941Z,2.72
2023-03-29T04:41:25.082Z,2.80
2023-03-29T04:43:52.122Z,3.05
2023-03-29T04:46:26.483Z,3.75
2023-03-29T04:49:05.868Z,3.40
2023-03-29T04:51:39.295Z,3.38
2023-03-29T04:54:06.464Z,3.40
2023-03-29T04:56:47.497Z,2.90
2023-03-29T04:59:37.144Z,3.15
2023-03-29T05:02:14.103Z,3.30
2023-03-29T05:04:43.555Z,4.10
2023-03-29T05:07:15.691Z,3.73
2023-03-29T05:09:42.605Z,3.45
2023-03-29T05:12:10.180Z,3.83
2023-03-29T05:14:57.300Z,3.50
2023-03-29T05:17:27.472Z,3.80
2023-03-29T05:19:58.804Z,3.75
2023-03-29T05:22:25.996Z,3.88
2023-03-29T05:24:52.932Z,6.60
2023-03-29T05:27:22.933Z,5.80
2023-03-29T05:30:01.687Z,5.97
2023-03-29T05:32:36.775Z,6.32
2023-03-29T05:35:05.068Z,6.25
2023-03-29T05:37:34.329Z,4.28
2023-03-29T05:40:06.979Z,4.10
2023-03-29T05:42:41.871Z,3.40
2023-03-29T05:45:11.362Z,3.38
2023-03-29T05:47:39.428Z,3.08
2023-03-29T05:50:09.643Z,3.45
2023-03-29T05:52:36.635Z,3.60
2023-03-29T05:55:07.393Z,3.85
2023-03-29T05:57:37.786Z,3.55
2023-03-29T06:00:35.845Z,3.00
2023-03-29T06:03:21.980Z,3.15
2023-03-29T06:05:56.608Z,2.60
2023-03-29T06:08:23.512Z,2.78
2023-03-29T06:11:28.517Z,2.95
2023-03-29T06:14:15.499Z,3.28
2023-03-29T06:16:48.130Z,2.70
2023-03-29T06:19:15.975Z,2.97
2023-03-29T06:21:43.047Z,2.80
2023-03-29T06:24:14.025Z,3.35
2023-03-29T06:26:46.429Z,3.30
2023-03-29T06:29:13.206Z,3.55
2023-03-29T06:31:41.234Z,3.85
2023-03-29T06:34:13.670Z,4.22
2023-03-29T06:37:06.759Z,4.13
2023-03-29T06:39:33.622Z,4.53
2023-03-29T06:42:21.576Z,4.05
2023-03-29T06:45:26.772Z,5.53
2023-03-29T06:47:55.949Z,4.88
2023-03-29T06:50:24.232Z,5.05
2023-03-29T06:53:04.068Z,4.93
2023-03-29T06:55:31.738Z,5.38
2023-03-29T06:58:09.157Z,4.90
2023-03-29T07:00:39.100Z,4.43
2023-03-29T07:03:19.938Z,4.82
2023-03-29T07:05:51.818Z,4.00
2023-03-29T07:08:21.392Z,4.70
2023-03-29T07:10:59.248Z,3.90
2023-03-29T07:13:32.929Z,4.18
2023-03-29T07:16:02.462Z,4.40
2023-03-29T07:18:43.964Z,5.10
2023-03-29T07:21:16.492Z,3.60
2023-03-29T07:23:43.581Z,5.32
2023-03-29T07:26:11.914Z,4.63
2023-03-29T07:28:43.127Z,4.00
2023-03-29T07:31:11.979Z,3.78
2023-03-29T07:33:45.356Z,3.90
2023-03-29T07:36:13.145Z,3.38
2023-03-29T07:38:40.449Z,3.30
2023-03-29T07:41:12.409Z,3.38
2023-03-29T07:43:51.984Z,3.67
2023-03-29T07:46:23.460Z,3.88
2023-03-29T07:48:50.245Z,3.42
2023-03-29T07:51:16.876Z,4.07
2023-03-29T07:54:00.631Z,4.82
2023-03-29T07:56:47.757Z,3.83
2023-03-29T07:59:21.593Z,4.40
2023-03-29T08:02:00.706Z,4.40
2023-03-29T08:04:34.788Z,4.50
2023-03-29T08:07:33.256Z,3.60
2023-03-29T08:10:24.266Z,4.90
2023-03-29T08:13:09.613Z,4.65
2023-03-29T08:15:47.299Z,5.25
2023-03-29T08:18:23.586Z,5.18
2023-03-29T08:20:51.689Z,4.47
2023-03-29T08:23:18.624Z,5.10
2023-03-29T08:26:01.230Z,5.45
2023-03-29T08:28:28.142Z,5.20
2023-03-29T08:30:54.767Z,5.20
2023-03-29T08:33:22.175Z,5.65
2023-03-29T08:35:57.657Z,5.30
2023-03-29T08:38:27.814Z,4.85
2023-03-29T08:40:55.872Z,5.38
2023-03-29T08:44:02.540Z,5.22
2023-03-29T08:47:07.141Z,4.95
2023-03-29T08:49:46.028Z,4.65
2023-03-29T08:52:23.359Z,5.25
2023-03-29T08:54:53.846Z,4.82
2023-03-29T08:57:57.362Z,4.80
2023-03-29T09:00:50.694Z,4.45
2023-03-29T09:03:26.038Z,4.40
2023-03-29T09:06:10.992Z,4.65
2023-03-29T09:08:42.323Z,4.60
2023-03-29T09:11:27.869Z,4.80
2023-03-29T09:14:00.987Z,3.95
2023-03-29T09:16:53.269Z,4.30
2023-03-29T09:19:39.947Z,3.80
2023-03-29T09:22:06.716Z,4.30
2023-03-29T09:24:46.205Z,3.60
2023-03-29T09:27:22.404Z,3.40
2023-03-29T09:29:58.324Z,4.03
2023-03-29T09:33:03.701Z,4.03
2023-03-29T09:36:01.743Z,4.50
2023-03-29T09:38:31.160Z,4.50
2023-03-29T09:41:24.815Z,4.75
2023-03-29T09:43:52.525Z,4.60
2023-03-29T09:46:34.283Z,4.50
2023-03-29T09:49:04.036Z,4.75
2023-03-29T09:51:33.856Z,4.70
2023-03-29T09:54:01.106Z,4.53
2023-03-29T09:56:57.319Z,3.97
2023-03-29T09:59:24.460Z,3.97
2023-03-29T10:01:51.582Z,3.38
2023-03-29T10:04:18.723Z,4.13
2023-03-29T10:06:52.634Z,4.05
2023-03-29T10:09:24.351Z,4.30
2023-03-29T10:12:02.223Z,4.85
2023-03-29T10:14:35.097Z,4.20
2023-03-29T10:17:06.079Z,3.97
2023-03-29T10:19:35.732Z,3.92
2023-03-29T10:22:14.313Z,4.10
2023-03-29T10:24:47.535Z,4.60
2023-03-29T10:27:14.257Z,3.17
2023-03-29T10:29:42.548Z,3.35
2023-03-29T10:32:34.740Z,3.47
2023-03-29T10:35:13.473Z,3.45
2023-03-29T10:37:42.631Z,3.97
2023-03-29T10:40:31.914Z,3.42
2023-03-29T10:43:00.687Z,3.78
2023-03-29T10:45:34.739Z,4.07
2023-03-29T10:48:04.892Z,4.50
2023-03-29T10:50:34.300Z,3.60
2023-03-29T10:53:03.069Z,4.15
2023-03-29T10:55:37.897Z,4.25
2023-03-29T10:58:11.199Z,3.63
2023-03-29T11:00:46.969Z,3.85
2023-03-29T11:03:40.449Z,4.13
2023-03-29T11:06:34.660Z,4.18
2023-03-29T11:09:37.399Z,3.80
2023-03-29T11:12:16.315Z,3.50
2023-03-29T11:15:05.063Z,3.80
2023-03-29T11:17:50.871Z,3.83
2023-03-29T11:20:22.348Z,3.97
2023-03-29T11:23:23.348Z,4.10
2023-03-29T11:26:10.149Z,3.63
2023-03-29T11:28:53.508Z,4.28
2023-03-29T11:31:38.396Z,3.92
2023-03-29T11:34:21.196Z,4.18
2023-03-29T11:36:57.127Z,4.18
2023-03-29T11:39:30.290Z,4.30
2023-03-29T11:42:07.763Z,4.30
2023-03-29T11:44:36.384Z,4.30
2023-03-29T11:47:20.437Z,4.15
2023-03-29T11:49:54.586Z,4.30
2023-03-29T11:52:27.543Z,4.30
2023-03-29T11:55:05.378Z,3.72
2023-03-29T11:57:39.926Z,4.63
2023-03-29T12:00:19.594Z,3.85
2023-03-29T12:03:02.859Z,3.45
2023-03-29T12:05:37.233Z,3.72
2023-03-29T12:08:12.343Z,3.83
2023-03-29T12:10:57.404Z,3.80
2023-03-29T12:13:30.300Z,4.07
2023-03-29T12:16:06.777Z,3.75
2023-03-29T12:18:39.663Z,3.45
2023-03-29T12:21:12.558Z,3.80
2023-03-29T12:23:43.217Z,3.88
2023-03-29T12:26:34.957Z,4.00
2023-03-29T12:29:30.090Z,3.33
2023-03-29T12:32:02.609Z,3.15
2023-03-29T12:35:14.158Z,3.65
2023-03-29T12:38:14.816Z,3.50
2023-03-29T12:41:10.583Z,3.85
2023-03-29T12:44:15.331Z,3.53
2023-03-29T12:46:53.652Z,3.97
2023-03-29T12:49:31.509Z,3.80
2023-03-29T12:52:01.604Z,4.40
2023-03-29T12:54:32.003Z,3.55
2023-03-29T12:57:26.109Z,4.38
2023-03-29T12:59:53.431Z,3.60
2023-03-29T13:02:22.995Z,4.40
2023-03-29T13:05:01.086Z,4.20
2023-03-29T13:07:47.777Z,4.20
2023-03-29T13:10:33.977Z,4.05
2023-03-29T13:13:11.731Z,3.70
2023-03-29T13:15:39.331Z,4.32
2023-03-29T13:18:06.198Z,4.28
2023-03-29T13:20:41.231Z,4.03
2023-03-29T13:23:27.012Z,4.63
2023-03-29T13:26:21.904Z,4.03
2023-03-29T13:29:09.911Z,4.50
2023-03-29T13:31:50.272Z,4.60
2023-03-29T13:34:48.307Z,4.10
2023-03-29T13:37:23.528Z,4.20
2023-03-29T13:39:55.312Z,4.47
2023-03-29T13:42:37.059Z,4.45
2023-03-29T13:45:25.161Z,3.95
2023-03-29T13:48:24.264Z,4.30
2023-03-29T13:50:53.918Z,4.18
2023-03-29T13:53:29.191Z,3.90
2023-03-29T13:55:59.191Z,4.05
2023-03-29T13:58:46.494Z,4.60
2023-03-29T14:01:38.112Z,4.38
2023-03-29T14:04:08.272Z,4.18
2023-03-29T14:06:38.234Z,4.15
2023-03-29T14:09:08.736Z,4.70
2023-03-29T14:11:36.161Z,4.35
2023-03-29T14:14:08.207Z,4.65
2023-03-29T14:16:37.289Z,4.55
2023-03-29T14:19:17.353Z,4.20
2023-03-29T14:21:44.695Z,4.00
2023-03-29T14:24:22.876Z,3.90
2023-03-29T14:26:49.833Z,3.85
2023-03-29T14:29:18.192Z,4.05
2023-03-29T14:31:44.916Z,3.83
2023-03-29T14:34:14.708Z,4.00
2023-03-29T14:36:43.878Z,4.10
2023-03-29T14:39:17.705Z,4.30
2023-03-29T14:41:50.089Z,4.30
2023-03-29T14:44:19.889Z,4.20
2023-03-29T14:46:49.556Z,4.78
2023-03-29T14:49:18.264Z,4.72
2023-03-29T14:51:46.497Z,4.32
2023-03-29T14:54:47.069Z,4.30
2023-03-29T14:57:18.582Z,4.30
2023-03-29T14:59:54.168Z,5.13
2023-03-29T15:02:27.146Z,4.50
2023-03-29T15:05:04.628Z,4.70
2023-03-29T15:07:33.639Z,4.18
2023-03-29T15:10:02.256Z,4.90
2023-03-29T15:12:30.705Z,4.57
2023-03-29T15:14:58.978Z,5.35
2023-03-29T15:17:47.683Z,4.95
2023-03-29T15:20:29.954Z,4.40
2023-03-29T15:23:13.038Z,4.25
2023-03-29T15:25:58.404Z,4.75
2023-03-29T15:28:28.387Z,4.53
2023-03-29T15:31:07.765Z,4.60
2023-03-29T15:33:38.400Z,4.65
2023-03-29T15:36:07.330Z,4.30
2023-03-29T15:38:43.235Z,4.47
2023-03-29T15:41:13.639Z,4.63
2023-03-29T15:43:41.276Z,4.50
2023-03-29T15:46:08.497Z,5.18
2023-03-29T15:48:35.360Z,4.80
2023-03-29T15:51:04.829Z,4.63
2023-03-29T15:53:33.356Z,4.65
2023-03-29T15:56:02.142Z,5.07
2023-03-29T15:58:31.821Z,4.53
2023-03-29T16:01:18.989Z,4.32
2023-03-29T16:03:47.828Z,4.28
2023-03-29T16:06:16.692Z,4.80
2023-03-29T16:08:43.451Z,5.63
2023-03-29T16:11:10.103Z,4.70
2023-03-29T16:13:36.739Z,5.28
2023-03-29T16:16:03.772Z,5.40
2023-03-29T16:18:30.740Z,4.88
2023-03-29T16:20:57.341Z,4.80
2023-03-29T16:23:23.981Z,5.38
2023-03-29T16:25:50.782Z,5.20
2023-03-29T16:28:17.436Z,5.80
2023-03-29T16:30:44.143Z,5.65
2023-03-29T16:33:11.303Z,4.90
2023-03-29T16:35:42.567Z,4.85
2023-03-29T16:38:09.408Z,4.50
2023-03-29T16:40:36.887Z,4.60
2023-03-29T16:43:04.509Z,4.70
2023-03-29T16:45:31.650Z,5.30
2023-03-29T16:47:58.578Z,4.93
2023-03-29T16:50:26.396Z,6.47
2023-03-29T16:52:53.065Z,5.40
2023-03-29T16:55:19.868Z,5.43
2023-03-29T16:57:47.514Z,5.68
2023-03-29T17:00:16.910Z,5.60
2023-03-29T17:02:44.149Z,5.35
2023-03-29T17:05:14.268Z,5.25
2023-03-29T17:07:40.916Z,5.10
2023-03-29T17:10:08.283Z,5.50
2023-03-29T17:12:35.581Z,4.78
2023-03-29T17:15:03.136Z,5.20
2023-03-29T17:17:29.796Z,5.90
2023-03-29T17:19:56.700Z,6.00
2023-03-29T17:22:24.117Z,5.50
2023-03-29T17:24:50.737Z,5.70
2023-03-29T17:27:17.540Z,5.70
2023-03-29T17:29:44.245Z,7.18
2023-03-29T17:32:10.776Z,6.65
2023-03-29T17:34:37.356Z,6.65
2023-03-29T17:37:04.601Z,6.72
2023-03-29T17:39:32.035Z,6.43
2023-03-29T17:41:58.634Z,6.78
2023-03-29T17:44:25.474Z,7.20
2023-03-29T17:46:52.209Z,6.82
2023-03-29T17:49:18.857Z,6.85
2023-03-29T17:51:45.781Z,6.70
2023-03-29T17:54:12.524Z,7.15
2023-03-29T17:56:39.172Z,6.22
2023-03-29T17:59:05.861Z,6.25
2023-03-29T18:01:32.789Z,6.22
2023-03-29T18:03:59.468Z,7.40
2023-03-29T18:06:26.323Z,6.95
2023-03-29T18:08:56.676Z,7.47
2023-03-29T18:11:24.597Z,7.07
2023-03-29T18:13:52.805Z,6.57
2023-03-29T18:16:20.903Z,6.95
2023-03-29T18:18:48.156Z,6.35
2023-03-29T18:21:16.085Z,7.13
2023-03-29T18:23:47.508Z,6.90
2023-03-29T18:26:15.906Z,7.30
2023-03-29T18:28:46.917Z,8.20
2023-03-29T18:31:14.250Z,9.40
2023-03-29T18:33:40.771Z,7.57
2023-03-29T18:36:10.871Z,8.23
2023-03-29T18:38:40.332Z,8.05
2023-03-29T18:41:08.615Z,7.88
2023-03-29T18:43:35.922Z,7.90
2023-03-29T18:46:03.369Z,8.00
2023-03-29T18:48:30.479Z,8.07
2023-03-29T18:50:57.861Z,7.65
2023-03-29T18:53:24.662Z,8.02
2023-03-29T18:55:51.213Z,7.65
2023-03-29T18:58:20.729Z,7.78
2023-03-29T19:00:47.258Z,7.53
2023-03-29T19:03:14.090Z,7.93
2023-03-29T19:05:41.120Z,7.45
2023-03-29T19:08:08.948Z,7.68
2023-03-29T19:10:39.297Z,8.13
2023-03-29T19:13:06.123Z,7.55
2023-03-29T19:15:34.666Z,7.82
2023-03-29T19:18:01.506Z,7.75
2023-03-29T19:20:29.321Z,7.00
2023-03-29T19:22:55.877Z,7.70
2023-03-29T19:25:22.539Z,7.65
2023-03-29T19:27:50.259Z,8.15
2023-03-29T19:30:18.242Z,8.63
2023-03-29T19:32:44.828Z,8.70
2023-03-29T19:35:12.757Z,8.85
2023-03-29T19:37:39.803Z,9.30
2023-03-29T19:40:08.195Z,8.95
2023-03-29T19:42:37.550Z,9.52
2023-03-29T19:45:06.157Z,9.63
2023-03-29T19:47:32.844Z,9.77
2023-03-29T19:50:00.303Z,9.80
2023-03-29T19:52:28.423Z,13.55
2023-03-29T19:54:58.590Z,12.65
2023-03-29T19:57:25.287Z,10.95
2023-03-29T19:59:53.900Z,10.32
2023-03-29T20:02:21.676Z,11.13
2023-03-29T20:04:48.300Z,11.35
2023-03-29T20:07:15.344Z,11.27
2023-03-29T20:09:44.587Z,10.35
2023-03-29T20:12:11.835Z,9.95
2023-03-29T20:14:40.229Z,9.35
2023-03-29T20:17:07.318Z,9.48
2023-03-29T20:19:36.389Z,9.35
2023-03-29T20:22:03.995Z,9.80
2023-03-29T20:24:32.481Z,8.70
2023-03-29T20:26:59.192Z,9.27
2023-03-29T20:29:25.884Z,9.45
2023-03-29T20:31:52.596Z,9.75
2023-03-29T20:34:19.165Z,9.73
2023-03-29T20:36:46.712Z,9.60
2023-03-29T20:39:17.920Z,10.75
2023-03-29T20:41:47.637Z,12.98
2023-03-29T20:44:16.721Z,12.45
2023-03-29T20:46:54.528Z,11.40
2023-03-29T20:49:26.247Z,10.75
2023-03-29T20:52:03.239Z,9.68
2023-03-29T20:54:29.902Z,9.88
2023-03-29T20:56:56.468Z,8.70
2023-03-29T20:59:23.074Z,9.10
2023-03-29T21:01:50.305Z,9.50
2023-03-29T21:04:17.035Z,9.43
2023-03-29T21:06:45.629Z,9.40
2023-03-29T21:09:13.239Z,9.13
2023-03-29T21:11:39.843Z,8.95
2023-03-29T21:14:06.339Z,9.27
2023-03-29T21:16:33.033Z,9.32
2023-03-29T21:18:59.647Z,9.68
2023-03-29T21:21:26.385Z,9.18
2023-03-29T21:23:53.052Z,9.40
2023-03-29T21:26:19.643Z,9.30
2023-03-29T21:28:48.426Z,9.30
2023-03-29T21:31:15.065Z,7.72
2023-03-29T21:33:41.626Z,8.25
2023-03-29T21:36:08.333Z,9.23
2023-03-29T21:38:34.969Z,10.93
2023-03-29T21:41:02.717Z,9.18
2023-03-29T21:43:29.483Z,8.73
2023-03-29T21:45:57.550Z,9.65
2023-03-29T21:48:24.170Z,9.60
2023-03-29T21:50:50.984Z,10.57
2023-03-29T21:53:18.246Z,10.23
2023-03-29T21:55:44.791Z,9.68
2023-03-29T21:58:11.360Z,9.93
2023-03-29T22:00:38.010Z,9.35
2023-03-29T22:03:04.610Z,9.07
2023-03-29T22:05:31.202Z,8.80
2023-03-29T22:07:58.736Z,9.25
2023-03-29T22:10:25.487Z,8.60
2023-03-29T22:12:52.562Z,8.00
2023-03-29T22:15:22.578Z,7.35
2023-03-29T22:17:50.334Z,5.90
2023-03-29T22:20:18.363Z,7.03
2023-03-29T22:22:49.747Z,7.90
2023-03-29T22:25:20.285Z,9.57
2023-03-29T22:27:48.488Z,9.27
2023-03-29T22:30:16.983Z,9.82
2023-03-29T22:32:43.553Z,13.43
2023-03-29T22:35:10.194Z,10.60
2023-03-29T22:37:41.634Z,4.88
2023-03-29T22:40:10.255Z,8.13
2023-03-29T22:42:36.915Z,5.70
2023-03-29T22:45:04.542Z,7.60
2023-03-29T22:47:31.103Z,8.32
2023-03-29T22:49:57.680Z,7.97
2023-03-29T22:52:24.202Z,7.68
2023-03-29T22:54:51.107Z,7.50
2023-03-29T22:57:17.743Z,7.72
2023-03-29T22:59:44.279Z,7.85
2023-03-29T23:02:10.945Z,7.43
2023-03-29T23:04:38.668Z,5.93
2023-03-29T23:07:06.172Z,7.60
2023-03-29T23:09:32.982Z,7.10
2023-03-29T23:12:01.079Z,7.15
2023-03-29T23:14:28.808Z,7.07
2023-03-29T23:16:55.308Z,7.28
2023-03-29T23:19:22.947Z,8.85
2023-03-29T23:21:49.474Z,9.85
2023-03-29T23:24:18.995Z,8.77
2023-03-29T23:26:45.866Z,7.88
2023-03-29T23:29:13.621Z,13.13
2023-03-29T23:31:40.147Z,12.30
2023-03-29T23:34:06.699Z,8.43
2023-03-29T23:36:34.249Z,12.55
2023-03-29T23:39:01.923Z,11.68
2023-03-29T23:41:30.509Z,11.80
2023-03-29T23:43:57.948Z,15.32
2023-03-29T23:46:24.712Z,15.63
2023-03-29T23:48:51.667Z,19.58
2023-03-29T23:51:22.618Z,14.55
2023-03-29T23:53:50.674Z,12.88
2023-03-29T23:56:17.524Z,10.38
2023-03-29T23:58:44.508Z,9.75
